Time;durP1;ratioP1;P1;durP2;ratioP2;P2;SDS_P1;SDS_P2;PMS_P1;PMS_P2;Temp;Humidity;BMP_temperature;BMP_pressure;BME280_temperature;BME280_humidity;BME280_pressure;Samples;Min_cycle;Max_cycle;Signal;HPM_P1;HPM_P2
2023/06/21 00:00:36;;;;;;;18.85;12.75;;;;;;;21.28;64.69;99511.97;5031903;28;20508;-81
2023/06/21 00:03:04;;;;;;;23.38;12.68;;;;;;;20.87;65.60;99504.66;5023476;28;20022;-81
2023/06/21 00:05:30;;;;;;;17.25;12.88;;;;;;;20.77;66.77;99513.97;5013263;28;20028;-81
2023/06/21 00:07:55;;;;;;;20.48;12.90;;;;;;;20.78;66.67;99521.28;5012177;28;20087;-81
2023/06/21 00:10:23;;;;;;;17.58;11.80;;;;;;;20.90;66.42;99517.25;5012120;28;20535;-81
2023/06/21 00:12:55;;;;;;;19.70;12.05;;;;;;;19.90;69.23;99517.31;5024312;28;20048;-81
2023/06/21 00:15:22;;;;;;;19.13;11.43;;;;;;;19.64;70.39;99518.38;5017209;28;20033;-81
2023/06/21 00:17:48;;;;;;;17.85;11.45;;;;;;;19.72;69.91;99522.06;5010614;28;20103;-81
2023/06/21 00:20:13;;;;;;;15.57;10.13;;;;;;;19.87;69.67;99511.63;5010830;28;20029;-81
2023/06/21 00:22:39;;;;;;;15.00;13.15;;;;;;;19.64;69.99;99518.38;5012091;28;20033;-81
2023/06/21 00:25:07;;;;;;;13.15;10.55;;;;;;;19.10;72.69;99510.31;5015647;28;20423;-81
2023/06/21 00:27:33;;;;;;;18.95;11.13;;;;;;;18.23;76.79;99504.59;5019868;28;20496;-82
2023/06/21 00:29:58;;;;;;;14.32;11.65;;;;;;;18.21;77.65;99506.16;5011982;28;20083;-81
2023/06/21 00:32:24;;;;;;;14.10;10.98;;;;;;;18.40;77.04;99504.38;5013951;28;20079;-81
2023/06/21 00:34:49;;;;;;;14.63;10.85;;;;;;;18.64;75.73;99491.66;5015168;28;20026;-81
2023/06/21 00:37:16;;;;;;;14.65;11.13;;;;;;;18.38;76.74;99499.91;5022237;28;20088;-81
2023/06/21 00:39:42;;;;;;;17.50;10.90;;;;;;;17.99;78.91;99505.91;5010326;28;20025;-81
2023/06/21 00:42:08;;;;;;;12.10;10.80;;;;;;;18.16;78.30;99506.53;5010333;28;20025;-81
2023/06/21 00:44:35;;;;;;;17.00;12.55;;;;;;;18.50;77.01;99495.19;5009680;28;20034;-81
2023/06/21 00:47:01;;;;;;;12.18;10.88;;;;;;;18.91;75.71;99512.16;5009582;28;20079;-81
2023/06/21 00:49:27;;;;;;;12.23;10.35;;;;;;;19.14;74.28;99496.97;5010280;28;20077;-81
2023/06/21 00:51:57;;;;;;;16.55;11.70;;;;;;;19.24;73.68;99501.09;5010316;28;20083;-81
2023/06/21 00:54:29;;;;;;;16.35;11.25;;;;;;;19.19;73.52;99507.97;5014788;28;20107;-81
2023/06/21 00:56:56;;;;;;;15.90;10.77;;;;;;;18.79;75.20;99506.78;5014381;28;20403;-81
2023/06/21 00:59:23;;;;;;;19.85;11.02;;;;;;;18.95;74.91;99515.03;5013969;28;20026;-81
2023/06/21 01:01:48;;;;;;;11.45;9.88;;;;;;;19.13;74.20;99509.53;5010061;28;20044;-81
2023/06/21 01:04:14;;;;;;;12.07;10.45;;;;;;;19.15;73.87;99512.78;5010434;28;20030;-81
2023/06/21 01:07:01;;;;;;;12.65;10.40;;;;;;;19.18;73.63;99514.81;5013469;28;20050;-81
2023/06/21 01:09:40;;;;;;;13.63;10.23;;;;;;;18.67;75.42;99510.72;5011042;28;20057;-81
2023/06/21 01:12:37;;;;;;;11.73;9.88;;;;;;;18.13;78.41;99515.78;5015410;28;20561;-81
2023/06/21 01:15:07;;;;;;;13.63;11.75;;;;;;;17.94;79.50;99520.38;5027565;28;20025;-81
2023/06/21 01:17:35;;;;;;;17.38;11.40;;;;;;;17.70;80.94;99505.50;5033463;28;20139;-81
2023/06/21 01:20:08;;;;;;;16.23;9.88;;;;;;;17.99;79.74;99513.56;5022467;28;20024;-81
2023/06/21 01:22:58;;;;;;;13.93;9.85;;;;;;;17.87;79.91;99511.81;5029436;28;20510;-81
2023/06/21 01:26:04;;;;;;;15.48;10.55;;;;;;;17.79;80.87;99516.53;5032226;28;20536;-81
2023/06/21 01:28:33;;;;;;;14.05;9.25;;;;;;;18.09;79.09;99510.09;5020791;28;20128;-81
2023/06/21 01:31:01;;;;;;;11.82;9.75;;;;;;;18.28;78.33;99506.25;5034132;28;20025;-81
2023/06/21 01:33:28;;;;;;;14.27;9.70;;;;;;;18.06;78.62;99496.72;5013096;28;20049;-81
2023/06/21 01:35:54;;;;;;;10.75;9.48;;;;;;;18.07;78.59;99504.81;5017767;28;20459;-81
2023/06/21 01:38:20;;;;;;;12.15;10.50;;;;;;;17.65;80.80;99503.03;5038165;28;20057;-81
2023/06/21 01:40:46;;;;;;;15.27;10.10;;;;;;;17.99;79.45;99508.72;5012854;28;20353;-81
2023/06/21 01:43:13;;;;;;;18.25;10.57;;;;;;;18.23;78.56;99506.63;5022132;28;20040;-81
2023/06/21 01:45:39;;;;;;;11.68;9.77;;;;;;;18.37;77.81;99506.78;5012922;28;20032;-81
2023/06/21 01:48:06;;;;;;;17.30;10.07;;;;;;;17.93;78.98;99501.75;5030664;28;20480;-81
2023/06/21 01:50:33;;;;;;;15.77;10.13;;;;;;;17.40;82.17;99503.47;5012903;28;20520;-81
2023/06/21 01:53:00;;;;;;;16.02;10.60;;;;;;;17.30;83.69;99509.78;5012120;28;20037;-81
2023/06/21 01:55:27;;;;;;;14.63;10.13;;;;;;;16.85;86.03;99501.75;5033349;28;20436;-81
2023/06/21 01:57:53;;;;;;;15.68;10.73;;;;;;;16.60;87.71;99502.13;5024058;28;20133;-81
2023/06/21 02:00:21;;;;;;;17.65;11.73;;;;;;;16.49;89.65;99501.09;5012952;28;20065;-81
2023/06/21 02:02:54;;;;;;;13.98;10.77;;;;;;;16.56;89.12;99506.91;5030394;28;20108;-82
2023/06/21 02:05:21;;;;;;;13.95;10.60;;;;;;;16.57;88.77;99505.72;5006201;28;20049;-81
2023/06/21 02:07:47;;;;;;;14.77;11.13;;;;;;;16.28;90.46;99496.69;5030216;28;20468;-82
2023/06/21 02:10:18;;;;;;;12.23;10.82;;;;;;;16.47;89.93;99515.63;5021570;28;20025;-81
2023/06/21 02:12:50;;;;;;;15.23;10.35;;;;;;;16.36;90.95;99521.03;5018264;28;20162;-81
2023/06/21 02:15:16;;;;;;;12.80;10.32;;;;;;;16.49;89.37;99515.22;5031056;28;20036;-82
2023/06/21 02:17:48;;;;;;;13.02;10.70;;;;;;;16.51;89.74;99507.19;5012226;28;20042;-81
2023/06/21 02:20:13;;;;;;;13.05;11.27;;;;;;;16.80;87.24;99514.19;5030493;28;20032;-81
2023/06/21 02:22:40;;;;;;;13.35;10.85;;;;;;;17.17;84.72;99520.47;5012709;28;20455;-81
2023/06/21 02:25:06;;;;;;;13.27;9.88;;;;;;;17.40;83.55;99526.09;5012072;28;20120;-82
2023/06/21 02:27:31;;;;;;;17.35;10.88;;;;;;;17.53;82.47;99524.69;5043239;28;20552;-82
2023/06/21 02:29:57;;;;;;;14.25;9.38;;;;;;;17.50;81.59;99525.44;5012644;28;20025;-81
2023/06/21 02:32:22;;;;;;;13.10;11.32;;;;;;;17.01;84.44;99523.44;5018097;28;20022;-81
2023/06/21 02:34:48;;;;;;;21.98;11.50;;;;;;;16.94;85.10;99522.09;5017770;28;20021;-81
2023/06/21 02:37:13;;;;;;;14.88;11.40;;;;;;;17.14;84.61;99524.06;5016016;28;20120;-81
2023/06/21 02:39:39;;;;;;;12.55;10.45;;;;;;;17.41;82.72;99524.91;5015937;28;20028;-81
2023/06/21 02:42:04;;;;;;;19.70;11.15;;;;;;;17.20;83.63;99528.22;5015133;28;20459;-81
2023/06/21 02:44:30;;;;;;;14.50;10.57;;;;;;;17.08;84.52;99532.88;5023921;28;20032;-81
2023/06/21 02:46:56;;;;;;;14.23;10.68;;;;;;;16.76;86.63;99535.06;5023554;28;20502;-81
2023/06/21 02:49:22;;;;;;;14.38;11.25;;;;;;;16.76;86.32;99532.25;5018194;28;20130;-77
2023/06/21 02:51:52;;;;;;;16.65;10.60;;;;;;;16.82;85.48;99531.56;5015700;28;20115;-82
2023/06/21 02:54:17;;;;;;;15.77;10.50;;;;;;;16.71;85.34;99524.91;5047598;28;20104;-78
2023/06/21 02:56:43;;;;;;;12.77;10.30;;;;;;;17.09;83.59;99531.66;5029556;28;20125;-78
2023/06/21 02:59:09;;;;;;;16.30;11.20;;;;;;;16.89;84.12;99533.69;5025074;28;20575;-78
2023/06/21 03:01:35;;;;;;;25.15;12.88;;;;;;;16.84;85.20;99545.31;5040036;28;20029;-76
2023/06/21 03:04:00;;;;;;;17.00;11.95;;;;;;;16.76;84.83;99544.38;5033472;28;20414;-76
2023/06/21 03:06:29;;;;;;;16.65;11.13;;;;;;;16.93;84.79;99540.25;5020900;28;20451;-79
2023/06/21 03:08:58;;;;;;;13.23;11.82;;;;;;;16.64;86.23;99548.19;5033281;28;20027;-81
2023/06/21 03:11:24;;;;;;;18.53;12.60;;;;;;;16.52;87.27;99539.88;5003923;28;20120;-81
2023/06/21 03:13:49;;;;;;;16.88;12.52;;;;;;;16.73;86.55;99542.31;5047094;28;20028;-78
2023/06/21 03:16:15;;;;;;;16.08;12.10;;;;;;;16.97;84.41;99529.81;5033068;28;20022;-79
2023/06/21 03:18:41;;;;;;;16.98;12.50;;;;;;;16.67;87.43;99560.75;5016549;28;20496;-84
2023/06/21 03:21:06;;;;;;;24.67;14.00;;;;;;;16.31;89.77;99563.69;5032756;28;20488;-79
2023/06/21 03:23:32;;;;;;;22.60;13.48;;;;;;;16.09;92.26;99566.06;5031838;28;20128;-79
2023/06/21 03:25:57;;;;;;;22.38;14.48;;;;;;;16.06;93.24;99558.34;5017147;28;20048;-79
2023/06/21 03:28:23;;;;;;;17.95;12.77;;;;;;;16.40;92.46;99564.25;5032019;28;20021;-79
2023/06/21 03:30:48;;;;;;;18.95;14.05;;;;;;;16.67;89.69;99570.03;5019719;28;20030;-79
2023/06/21 03:33:14;;;;;;;18.85;13.45;;;;;;;16.63;89.55;99557.03;5016497;28;20022;-79
2023/06/21 03:35:39;;;;;;;24.08;13.43;;;;;;;16.87;88.90;99564.31;5011986;28;20420;-79
2023/06/21 03:38:07;;;;;;;20.20;14.02;;;;;;;16.94;88.78;99560.81;5011618;28;20021;-80
2023/06/21 03:40:33;;;;;;;16.83;14.13;;;;;;;17.01;88.35;99565.81;5023710;28;20021;-79
2023/06/21 03:42:58;;;;;;;28.92;13.48;;;;;;;16.87;88.17;99550.22;5027654;28;20024;-79
2023/06/21 03:45:23;;;;;;;17.33;12.98;;;;;;;17.09;87.64;99564.75;5012483;28;20029;-79
2023/06/21 03:47:49;;;;;;;21.08;13.60;;;;;;;16.90;88.08;99557.94;5011212;28;20034;-79
2023/06/21 03:50:14;;;;;;;22.20;13.35;;;;;;;16.91;88.04;99559.56;5011002;28;20026;-79
2023/06/21 03:52:40;;;;;;;17.33;13.10;;;;;;;16.74;88.85;99579.81;5011650;28;20037;-79
2023/06/21 03:55:07;;;;;;;19.40;13.82;;;;;;;16.48;91.03;99579.34;5020862;28;20022;-79
2023/06/21 03:57:33;;;;;;;19.48;13.90;;;;;;;16.49;91.88;99580.16;5027177;28;20037;-79
2023/06/21 03:59:58;;;;;;;16.60;13.68;;;;;;;16.59;91.88;99551.31;5023236;28;20405;-79
2023/06/21 04:02:24;;;;;;;21.95;13.18;;;;;;;16.76;91.19;99561.31;5029113;28;20108;-79
2023/06/21 04:04:50;;;;;;;22.27;13.48;;;;;;;16.82;92.17;99567.47;5030209;28;20057;-79
2023/06/21 04:07:19;;;;;;;16.10;13.27;;;;;;;17.00;90.90;99559.34;5010084;28;20038;-79
2023/06/21 04:09:45;;;;;;;19.42;13.63;;;;;;;16.79;91.72;99548.47;5011590;28;20057;-79
2023/06/21 04:12:11;;;;;;;18.98;11.82;;;;;;;17.04;91.02;99554.56;5011587;28;20036;-79
2023/06/21 04:14:37;;;;;;;20.77;12.90;;;;;;;17.12;90.77;99562.00;5011902;28;20021;-79
2023/06/21 04:17:02;;;;;;;16.77;12.35;;;;;;;17.12;90.14;99544.19;5010249;28;20429;-79
2023/06/21 04:19:28;;;;;;;22.23;14.32;;;;;;;17.24;90.04;99546.81;5035677;28;20081;-79
2023/06/21 04:21:53;;;;;;;24.58;13.57;;;;;;;17.49;88.86;99569.03;5033822;28;20462;-79
2023/06/21 04:24:19;;;;;;;20.45;12.73;;;;;;;17.59;88.05;99569.56;5016913;28;20056;-79
2023/06/21 04:26:44;;;;;;;17.15;11.95;;;;;;;17.68;87.28;99572.97;5022354;28;20032;-79
2023/06/21 04:29:09;;;;;;;19.50;12.43;;;;;;;17.68;87.66;99556.81;5050295;28;20029;-79
2023/06/21 04:31:37;;;;;;;17.42;11.55;;;;;;;17.79;86.89;99573.94;5021574;28;20040;-81
2023/06/21 04:34:04;;;;;;;16.85;11.88;;;;;;;17.80;87.12;99575.56;5034205;28;20081;-81
2023/06/21 04:36:29;;;;;;;13.60;11.10;;;;;;;17.57;87.24;99564.31;5031661;28;20480;-81
2023/06/21 04:38:55;;;;;;;22.90;12.07;;;;;;;17.75;87.54;99558.09;5033202;28;20124;-81
2023/06/21 04:41:22;;;;;;;18.52;12.18;;;;;;;18.15;86.20;99570.78;5023047;28;20031;-81
2023/06/21 04:43:50;;;;;;;15.52;11.10;;;;;;;18.32;83.43;99563.72;5019926;28;20521;-80
2023/06/21 04:46:17;;;;;;;18.40;12.25;;;;;;;18.36;83.77;99581.59;5020492;28;20080;-79
2023/06/21 04:48:44;;;;;;;17.13;11.30;;;;;;;18.27;83.59;99586.72;5017886;28;20026;-78
2023/06/21 04:51:15;;;;;;;14.35;11.00;;;;;;;18.66;81.76;99582.75;5050215;28;20189;-79
2023/06/21 04:53:41;;;;;;;13.65;11.35;;;;;;;18.76;80.33;99579.22;5032511;28;20522;-79
2023/06/21 04:56:07;;;;;;;11.65;10.45;;;;;;;18.96;80.12;99584.66;5023232;28;20073;-79
2023/06/21 04:58:35;;;;;;;19.88;11.40;;;;;;;19.32;79.31;99589.91;5017496;28;20442;-79
2023/06/21 05:01:01;;;;;;;20.50;10.57;;;;;;;19.38;78.61;99576.16;5018293;28;20162;-79
2023/06/21 05:03:27;;;;;;;12.07;10.38;;;;;;;19.45;78.18;99582.72;5018887;28;20033;-79
2023/06/21 05:05:52;;;;;;;17.50;10.95;;;;;;;19.73;76.70;99580.44;5020480;28;20668;-79
2023/06/21 05:08:18;;;;;;;20.52;10.95;;;;;;;19.90;76.12;99581.78;5009844;28;20029;-80
2023/06/21 05:10:43;;;;;;;15.20;11.13;;;;;;;19.78;75.55;99575.22;5015408;28;20029;-79
2023/06/21 05:13:09;;;;;;;18.42;10.10;;;;;;;19.86;75.05;99569.59;5019075;28;20107;-79
2023/06/21 05:15:34;;;;;;;11.48;10.25;;;;;;;19.87;74.86;99585.41;5037540;28;20017;-79
2023/06/21 05:18:00;;;;;;;11.23;9.45;;;;;;;20.00;74.18;99583.91;5017990;28;20599;-76
2023/06/21 05:20:25;;;;;;;14.00;10.38;;;;;;;20.22;74.41;99584.00;5007951;28;20063;-76
2023/06/21 05:22:52;;;;;;;16.17;10.60;;;;;;;20.35;72.58;99590.16;5024984;28;20029;-77
2023/06/21 05:25:18;;;;;;;13.23;9.82;;;;;;;20.32;71.07;99596.63;5027312;28;20044;-74
2023/06/21 05:27:44;;;;;;;21.63;10.82;;;;;;;20.47;70.65;99581.28;5026562;28;20029;-75
2023/06/21 05:30:09;;;;;;;14.63;10.18;;;;;;;20.65;71.06;99591.09;5027385;28;20492;-76
2023/06/21 05:32:35;;;;;;;16.25;10.38;;;;;;;21.02;70.02;99593.63;5016947;28;20438;-79
2023/06/21 05:35:00;;;;;;;16.98;9.98;;;;;;;21.09;67.99;99601.34;5010930;28;20024;-79
2023/06/21 05:37:26;;;;;;;10.10;9.10;;;;;;;20.95;65.88;99585.09;5028136;28;20028;-78
2023/06/21 05:39:51;;;;;;;12.85;8.73;;;;;;;21.26;65.88;99590.41;5018399;28;20040;-79
2023/06/21 05:42:17;;;;;;;10.68;9.10;;;;;;;21.27;65.75;99589.97;5046319;28;20036;-76
2023/06/21 05:44:42;;;;;;;24.13;9.82;;;;;;;21.65;64.45;99600.97;5029225;28;20026;-78
2023/06/21 05:47:08;;;;;;;9.95;8.85;;;;;;;22.10;63.36;99589.09;5020591;28;20037;-78
2023/06/21 05:49:33;;;;;;;11.15;9.05;;;;;;;22.06;62.24;99579.75;5020747;28;20028;-76
2023/06/21 05:51:59;;;;;;;13.57;10.20;;;;;;;22.34;62.44;99585.78;5039382;28;20029;-77
2023/06/21 05:54:25;;;;;;;10.27;9.02;;;;;;;22.60;61.16;99570.19;5030942;28;20511;-78
2023/06/21 05:56:51;;;;;;;14.52;9.68;;;;;;;22.69;60.55;99581.16;5013559;28;20108;-76
2023/06/21 05:59:17;;;;;;;9.10;8.20;;;;;;;22.63;59.73;99591.38;5020202;28;20033;-76
2023/06/21 06:01:43;;;;;;;12.20;8.32;;;;;;;22.79;59.94;99585.19;5037587;28;20103;-76
2023/06/21 06:04:08;;;;;;;10.40;8.88;;;;;;;22.81;59.65;99586.41;5025545;28;20025;-75
2023/06/21 06:06:41;;;;;;;12.18;8.80;;;;;;;22.87;58.00;99598.16;5043817;28;20111;-77
2023/06/21 06:09:11;;;;;;;12.07;7.07;;;;;;;23.31;56.17;99584.44;5036257;28;20112;-75
2023/06/21 06:11:37;;;;;;;11.95;7.53;;;;;;;23.58;54.55;99589.50;5034161;28;20025;-73
2023/06/21 06:14:03;;;;;;;8.68;7.53;;;;;;;23.62;54.44;99578.84;5040231;28;20558;-72
2023/06/21 06:16:28;;;;;;;15.50;9.00;;;;;;;23.80;55.04;99584.38;5038070;28;20083;-73
2023/06/21 06:18:54;;;;;;;9.65;8.32;;;;;;;24.17;53.47;99573.44;5033840;28;20189;-74
2023/06/21 06:21:21;;;;;;;9.63;6.78;;;;;;;24.56;50.36;99577.03;5041538;28;20029;-72
2023/06/21 06:23:51;;;;;;;9.63;7.88;;;;;;;24.85;49.80;99579.50;5031098;28;20025;-73
2023/06/21 06:26:24;;;;;;;15.52;8.23;;;;;;;25.12;49.86;99575.03;5018340;28;20029;-73
2023/06/21 06:28:50;;;;;;;9.57;7.95;;;;;;;25.41;48.78;99577.41;5033992;28;20036;-74
2023/06/21 06:31:21;;;;;;;9.15;8.35;;;;;;;24.58;50.79;99565.16;5032632;28;20462;-73
2023/06/21 06:33:46;;;;;;;10.27;8.10;;;;;;;25.23;49.67;99570.75;5053695;28;20025;-74
2023/06/21 06:36:12;;;;;;;9.45;7.50;;;;;;;25.37;47.67;99563.97;5032978;28;20047;-73
2023/06/21 06:38:38;;;;;;;8.25;7.35;;;;;;;25.26;46.45;99560.50;5022318;28;20415;-77
2023/06/21 06:41:04;;;;;;;9.38;7.07;;;;;;;24.79;47.45;99564.88;5021179;28;20476;-76
2023/06/21 06:43:29;;;;;;;9.63;7.22;;;;;;;25.16;47.91;99558.59;5030738;28;20037;-76
2023/06/21 06:45:55;;;;;;;11.90;7.82;;;;;;;24.72;48.36;99556.38;5040850;28;20396;-76
2023/06/21 06:48:20;;;;;;;11.00;8.27;;;;;;;24.65;48.72;99545.03;5044013;28;20040;-80
2023/06/21 06:50:46;;;;;;;10.20;8.23;;;;;;;25.18;48.20;99538.94;5016042;28;20025;-80
2023/06/21 06:53:11;;;;;;;12.70;7.72;;;;;;;25.64;47.73;99554.53;5015377;28;20034;-80
2023/06/21 06:55:37;;;;;;;8.68;7.78;;;;;;;25.58;46.32;99553.44;5031122;28;20028;-80
2023/06/21 06:58:02;;;;;;;9.25;8.32;;;;;;;25.85;45.45;99546.78;5015357;28;20108;-81
2023/06/21 07:00:28;;;;;;;10.77;8.93;;;;;;;26.10;45.51;99544.66;5028577;28;20441;-83
2023/06/21 07:02:56;;;;;;;11.70;8.05;;;;;;;25.78;46.39;99546.91;5032883;28;20098;-81
2023/06/21 07:05:25;;;;;;;13.60;7.82;;;;;;;26.35;45.71;99542.09;5027091;28;20028;-83
2023/06/21 07:07:52;;;;;;;8.27;7.40;;;;;;;26.82;44.61;99545.19;5021975;28;20025;-83
2023/06/21 07:10:18;;;;;;;11.35;7.95;;;;;;;27.13;43.66;99533.41;5019533;28;20025;-83
2023/06/21 07:12:44;;;;;;;9.25;8.00;;;;;;;27.28;42.41;99540.44;5018256;28;20051;-84
2023/06/21 07:15:09;;;;;;;10.60;7.60;;;;;;;27.07;42.23;99532.34;5052598;28;20064;-83
2023/06/21 07:17:35;;;;;;;14.65;7.45;;;;;;;27.23;44.06;99532.34;5023542;28;20112;-84
2023/06/21 07:20:00;;;;;;;10.73;7.43;;;;;;;27.30;42.82;99546.50;5016807;28;20034;-78
2023/06/21 07:22:26;;;;;;;15.15;7.35;;;;;;;27.68;41.83;99544.34;5039730;28;20025;-75
2023/06/21 07:24:52;;;;;;;10.23;7.18;;;;;;;28.03;41.10;99545.41;5025899;28;20098;-83
2023/06/21 07:27:17;;;;;;;8.27;6.82;;;;;;;27.79;39.54;99527.63;5017722;28;20035;-84
2023/06/21 07:29:43;;;;;;;13.10;6.97;;;;;;;28.26;40.03;99523.44;5013391;28;20422;-76
2023/06/21 07:32:09;;;;;;;10.25;8.00;;;;;;;28.57;39.75;99539.34;5037868;28;20488;-75
2023/06/21 07:34:34;;;;;;;11.65;8.20;;;;;;;28.77;39.46;99541.22;5043228;28;20096;-75
2023/06/21 07:37:00;;;;;;;19.42;7.78;;;;;;;28.86;38.88;99532.75;5044661;28;20392;-76
2023/06/21 07:39:25;;;;;;;14.57;7.53;;;;;;;28.84;38.58;99532.38;5032616;28;20040;-77
2023/06/21 07:41:51;;;;;;;10.07;7.18;;;;;;;28.85;37.80;99522.50;5030261;28;20037;-77
2023/06/21 07:44:17;;;;;;;7.82;7.10;;;;;;;28.63;40.02;99528.91;5025017;28;20488;-76
2023/06/21 07:46:43;;;;;;;9.18;7.93;;;;;;;28.71;37.95;99533.16;5030259;28;20025;-76
2023/06/21 07:49:09;;;;;;;12.18;7.82;;;;;;;28.69;38.60;99524.19;5027015;28;20043;-76
2023/06/21 07:51:34;;;;;;;8.38;7.55;;;;;;;28.30;38.58;99527.03;5045607;28;20085;-77
2023/06/21 07:54:00;;;;;;;14.63;7.97;;;;;;;28.75;37.98;99526.50;5032733;28;20020;-76
2023/06/21 07:56:25;;;;;;;10.45;6.90;;;;;;;28.32;37.05;99522.88;5046366;28;20464;-76
2023/06/21 07:58:51;;;;;;;13.30;7.25;;;;;;;28.81;38.03;99524.66;5022246;28;20095;-77
2023/06/21 08:01:16;;;;;;;10.27;6.88;;;;;;;28.74;36.93;99531.44;5024218;28;20047;-77
2023/06/21 08:03:42;;;;;;;24.80;7.45;;;;;;;29.09;37.64;99519.28;5020833;28;20033;-76
2023/06/21 08:06:08;;;;;;;10.15;6.60;;;;;;;28.55;37.46;99527.50;5018057;28;20029;-75
2023/06/21 08:08:33;;;;;;;13.30;6.97;;;;;;;29.09;36.78;99533.66;5022473;28;20059;-76
2023/06/21 08:10:59;;;;;;;7.65;6.82;;;;;;;28.83;36.29;99520.06;5021213;28;20140;-81
2023/06/21 08:13:26;;;;;;;10.80;6.72;;;;;;;28.97;35.89;99526.63;5016047;28;20025;-76
2023/06/21 08:15:52;;;;;;;10.35;6.70;;;;;;;29.65;36.56;99522.72;5044149;28;20044;-77
2023/06/21 08:18:17;;;;;;;6.90;6.30;;;;;;;29.50;35.21;99517.47;5013817;28;20057;-78
2023/06/21 08:20:43;;;;;;;7.95;7.10;;;;;;;28.44;36.19;99517.13;5022005;28;20025;-77
2023/06/21 08:23:09;;;;;;;7.18;6.47;;;;;;;28.56;36.51;99517.63;5038206;28;20044;-75
2023/06/21 08:25:35;;;;;;;9.52;6.50;;;;;;;28.95;37.07;99520.53;5014709;28;20033;-76
2023/06/21 08:28:01;;;;;;;12.07;6.95;;;;;;;29.31;36.08;99512.75;5031515;28;20415;-77
2023/06/21 08:30:27;;;;;;;7.65;6.72;;;;;;;29.71;36.15;99509.34;5016956;28;20041;-77
2023/06/21 08:32:53;;;;;;;9.30;6.40;;;;;;;29.62;34.44;99503.50;5025756;28;20108;-80
2023/06/21 08:35:18;;;;;;;13.75;6.70;;;;;;;29.86;36.12;99512.47;5027564;28;20033;-83
2023/06/21 08:37:55;;;;;;;11.18;7.00;;;;;;;30.23;35.30;99494.69;5013345;28;20091;-72
2023/06/21 08:40:28;;;;;;;8.35;7.22;;;;;;;30.16;35.58;99489.19;5035327;28;20041;-80
2023/06/21 08:42:53;;;;;;;8.13;5.90;;;;;;;30.29;35.27;99489.94;5015586;28;20407;-77
2023/06/21 08:45:20;;;;;;;12.73;6.47;;;;;;;30.75;33.68;99500.09;5017162;28;20041;-78
2023/06/21 08:47:47;;;;;;;7.40;6.68;;;;;;;31.05;33.35;99491.88;5030345;28;20037;-77
2023/06/21 08:50:16;;;;;;;10.75;6.40;;;;;;;30.61;32.66;99479.16;5044638;28;20038;-79
2023/06/21 08:52:43;;;;;;;7.13;6.45;;;;;;;30.28;32.85;99488.28;5038043;28;20079;-78
2023/06/21 08:55:10;;;;;;;11.25;7.50;;;;;;;30.75;33.41;99491.44;5032608;28;20044;-84
2023/06/21 08:57:43;;;;;;;9.65;6.72;;;;;;;30.40;32.31;99484.50;5015184;28;20031;-82
2023/06/21 09:00:14;;;;;;;9.15;6.93;;;;;;;30.14;32.62;99485.97;5031388;28;20041;-79
2023/06/21 09:02:46;;;;;;;10.23;6.68;;;;;;;30.51;32.22;99489.06;5010289;28;20025;-82
2023/06/21 09:05:25;;;;;;;7.10;6.40;;;;;;;30.80;32.52;99488.72;5010231;28;20041;-80
2023/06/21 09:07:51;;;;;;;7.78;6.30;;;;;;;31.46;30.39;99477.38;5030240;28;20072;-80
2023/06/21 09:10:20;;;;;;;6.50;5.88;;;;;;;31.96;31.27;99482.19;5018153;28;20126;-79
2023/06/21 09:12:48;;;;;;;5.90;5.22;;;;;;;31.84;31.01;99478.19;5028773;28;20025;-79
2023/06/21 09:15:14;;;;;;;5.60;5.10;;;;;;;31.71;29.69;99484.13;5040151;28;20060;-76
2023/06/21 09:17:42;;;;;;;7.72;5.20;;;;;;;31.48;30.80;99484.25;5030577;28;20057;-76
2023/06/21 09:20:09;;;;;;;11.15;5.65;;;;;;;32.10;29.16;99489.38;5010786;28;20038;-84
2023/06/21 09:22:36;;;;;;;5.78;5.28;;;;;;;32.14;29.39;99481.38;5023200;28;20128;-81
2023/06/21 09:25:02;;;;;;;6.30;4.30;;;;;;;31.77;28.68;99488.78;5031517;28;20033;-80
2023/06/21 09:27:30;;;;;;;5.10;4.53;;;;;;;32.09;28.27;99479.94;5035297;28;20032;-82
2023/06/21 09:29:56;;;;;;;8.55;4.00;;;;;;;32.23;27.86;99484.25;5011195;28;20508;-81
2023/06/21 09:32:22;;;;;;;5.15;4.70;;;;;;;32.21;27.95;99472.34;5011923;28;20029;-79
2023/06/21 09:34:49;;;;;;;5.38;4.75;;;;;;;32.28;27.29;99480.69;5011557;28;20029;-80
2023/06/21 09:37:38;;;;;;;5.22;4.72;;;;;;;31.75;29.45;99479.78;5033364;28;20479;-80
2023/06/21 09:40:07;;;;;;;5.82;4.93;;;;;;;32.30;28.70;99481.00;5024563;28;20467;-76
2023/06/21 09:42:38;;;;;;;7.88;4.55;;;;;;;32.63;27.27;99476.56;5051883;28;20097;-77
2023/06/21 09:45:08;;;;;;;9.68;5.20;;;;;;;32.78;27.67;99470.88;5051889;28;20058;-78
2023/06/21 09:47:34;;;;;;;5.47;4.97;;;;;;;32.89;26.45;99476.16;5032150;28;20075;-80
2023/06/21 09:49:59;;;;;;;6.38;4.85;;;;;;;33.05;26.82;99477.84;5044223;28;20048;-81
2023/06/21 09:52:26;;;;;;;5.03;4.53;;;;;;;33.18;25.97;99475.53;5043407;28;20037;-79
2023/06/21 09:54:55;;;;;;;4.40;4.00;;;;;;;33.24;24.96;99469.03;5017948;28;20033;-76
2023/06/21 09:57:26;;;;;;;5.43;3.92;;;;;;;33.33;26.39;99474.78;5032947;28;20033;-79
2023/06/21 09:59:52;;;;;;;6.20;4.70;;;;;;;33.41;25.02;99470.19;5028327;28;20037;-79
2023/06/21 10:02:17;;;;;;;4.63;3.75;;;;;;;33.51;23.81;99473.06;5046894;28;20025;-79
2023/06/21 10:04:44;;;;;;;6.88;3.75;;;;;;;33.81;23.40;99462.31;5050775;28;20619;-79
2023/06/21 10:07:14;;;;;;;4.88;4.00;;;;;;;33.68;23.56;99456.81;5031220;28;20111;-79
2023/06/21 10:09:39;;;;;;;5.43;3.65;;;;;;;33.64;24.66;99456.19;5045136;28;20052;-79
2023/06/21 10:12:05;;;;;;;9.07;4.07;;;;;;;33.88;23.44;99461.94;5031781;28;20079;-79
2023/06/21 10:14:31;;;;;;;4.88;4.18;;;;;;;34.10;23.54;99455.00;5034285;28;20017;-79
2023/06/21 10:16:57;;;;;;;7.03;4.22;;;;;;;34.31;23.33;99460.88;5022326;28;20020;-79
2023/06/21 10:19:25;;;;;;;3.60;3.30;;;;;;;34.55;22.56;99454.97;5023158;28;20478;-79
2023/06/21 10:21:59;;;;;;;6.47;3.95;;;;;;;34.23;22.12;99460.47;5023798;28;20104;-79
2023/06/21 10:24:36;;;;;;;4.28;3.88;;;;;;;34.54;22.33;99462.09;5029241;28;20029;-78
2023/06/21 10:27:05;;;;;;;5.30;3.33;;;;;;;34.47;23.18;99462.47;5029606;28;20029;-79
2023/06/21 10:29:32;;;;;;;7.63;4.22;;;;;;;34.55;22.16;99463.69;5023283;28;20036;-79
2023/06/21 10:32:00;;;;;;;5.80;3.50;;;;;;;34.37;22.11;99449.34;5024491;28;20411;-79
2023/06/21 10:34:30;;;;;;;5.50;3.45;;;;;;;34.40;23.32;99459.97;5015714;28;20056;-79
2023/06/21 10:37:05;;;;;;;8.00;3.75;;;;;;;34.29;22.41;99461.38;5025396;28;20017;-79
2023/06/21 10:39:33;;;;;;;5.57;4.65;;;;;;;33.74;24.07;99449.00;5028322;28;20103;-79
2023/06/21 10:41:59;;;;;;;5.93;4.65;;;;;;;33.67;24.33;99442.81;5021417;28;20496;-79
2023/06/21 10:44:28;;;;;;;5.05;4.28;;;;;;;33.57;25.01;99453.69;5020984;28;20053;-78
2023/06/21 10:46:56;;;;;;;16.23;5.00;;;;;;;33.78;24.96;99456.72;5023281;28;20123;-79
2023/06/21 10:49:23;;;;;;;4.90;4.25;;;;;;;33.83;24.49;99447.34;5027684;28;20163;-79
2023/06/21 10:51:50;;;;;;;5.05;3.90;;;;;;;34.22;23.68;99449.38;5026437;28;20044;-79
2023/06/21 10:54:16;;;;;;;7.72;4.07;;;;;;;34.40;23.83;99446.25;5022888;28;20492;-79
2023/06/21 10:56:43;;;;;;;4.20;3.80;;;;;;;34.14;23.16;99438.16;5022004;28;20033;-79
2023/06/21 10:59:10;;;;;;;5.30;3.90;;;;;;;34.24;23.88;99435.97;5022290;28;20025;-79
2023/06/21 11:01:36;;;;;;;8.48;4.13;;;;;;;34.34;22.78;99441.66;5022229;28;20043;-79
2023/06/21 11:04:03;;;;;;;4.13;3.65;;;;;;;34.65;22.45;99440.34;5013985;28;20025;-79
2023/06/21 11:06:33;;;;;;;5.63;4.05;;;;;;;34.79;23.23;99445.31;5012641;28;20048;-78
2023/06/21 11:09:12;;;;;;;3.28;3.00;;;;;;;34.63;23.00;99440.03;5020213;28;20022;-79
2023/06/21 11:11:47;;;;;;;3.95;3.65;;;;;;;34.46;22.71;99445.56;5024383;28;20025;-79
2023/06/21 11:14:13;;;;;;;6.20;3.97;;;;;;;34.00;23.95;99436.88;5021993;28;20066;-79
2023/06/21 11:16:39;;;;;;;5.32;3.10;;;;;;;34.15;23.54;99450.56;5028996;28;20396;-79
2023/06/21 11:19:07;;;;;;;8.52;4.50;;;;;;;34.97;22.82;99443.44;5040448;28;20045;-79
2023/06/21 11:21:51;;;;;;;3.53;3.17;;;;;;;34.76;22.05;99436.81;5050466;28;20380;-79
2023/06/21 11:24:20;;;;;;;4.65;3.85;;;;;;;35.21;22.94;99439.56;5038591;28;20049;-79